Coe Leni — A8VR8 — position and weather

sailwx.info

Track history (hours):
 
Tides and Currents Weather Stations Pressure Air Temp Water Temp Dewpoint Dewpoint Depression Visibility Wind Speed Wind Dir Waves Ship Positions

Coe Leni

Last reported at 2016-Aug-30 06:33 UTC. Time now 2016-Aug-30 07:28 UTC.
Position N 45°36' W 073°30'.

Length 138 m; draft 8.1 m.

Type: Ship. MMSI: 636092036.

Date/timePositionNaut miles runAvg speedWind from/ knotsBaromVisibWave heightAir tempDewpointWater temp
2016-Aug-30 06:33N 45°36' W 073°30'7 6.7
2016-Aug-30 05:33N 45°30' W 073°31'2 2.0
2016-Aug-30 04:33N 45°28' W 073°30'4 4.2
2016-Aug-30 03:33N 45°24' W 073°34'4 3.6
2016-Aug-30 02:33N 45°24' W 073°39'6 5.9
2016-Aug-30 01:34N 45°24' W 073°47'7 7.3
2016-Aug-30 00:34N 45°19' W 073°55'1 0.8
2016-Aug-29 23:34N 45°18' W 073°56'6 5.4
2016-Aug-29 22:29N 45°14' W 074°01'25410.2
2016-Aug-28 21:31N 43°14' W 079°13'  
Track history (hours):
 
Tides and Currents Weather Stations Pressure Air Temp Water Temp Dewpoint Dewpoint Depression Visibility Wind Speed Wind Dir Waves Ship Positions

Coe Leni

Last reported at 2016-Aug-30 06:33 UTC. Time now 2016-Aug-30 07:28 UTC.
Position N 45°36' W 073°30'.

Length 138 m; draft 8.1 m.

Type: Ship. MMSI: 636092036.

Date/timePositionNaut miles runAvg speedWind from/ knotsBaromVisibWave heightAir tempDewpointWater temp
2016-Aug-30 06:33N 45°36' W 073°30'7 6.7
2016-Aug-30 05:33N 45°30' W 073°31'2 2.0
2016-Aug-30 04:33N 45°28' W 073°30'4 4.2
2016-Aug-30 03:33N 45°24' W 073°34'4 3.6
2016-Aug-30 02:33N 45°24' W 073°39'6 5.9
2016-Aug-30 01:34N 45°24' W 073°47'7 7.3
2016-Aug-30 00:34N 45°19' W 073°55'1 0.8
2016-Aug-29 23:34N 45°18' W 073°56'6 5.4
2016-Aug-29 22:29N 45°14' W 074°01'25410.2
2016-Aug-28 21:31N 43°14' W 079°13'  

Dump ship's entire track history